createdAt,value
2019-02-14T00:00:44.358Z,51.10
2019-02-14T00:03:14.212Z,43.53
2019-02-14T00:05:43.757Z,47.27
2019-02-14T00:08:13.198Z,40.75
2019-02-14T00:10:43.010Z,58.92
2019-02-14T00:13:12.506Z,44.55
2019-02-14T00:15:42.010Z,42.67
2019-02-14T00:18:11.580Z,34.53
2019-02-14T00:20:41.088Z,40.73
2019-02-14T00:23:10.777Z,44.35
2019-02-14T00:25:40.282Z,41.10
2019-02-14T00:28:09.692Z,48.60
2019-02-14T00:30:39.310Z,43.45
2019-02-14T00:33:08.825Z,40.38
2019-02-14T00:35:38.264Z,36.73
2019-02-14T00:38:08.502Z,41.45
2019-02-14T00:40:38.309Z,43.70
2019-02-14T00:43:07.818Z,45.25
2019-02-14T00:45:37.348Z,53.48
2019-02-14T00:48:07.080Z,42.88
2019-02-14T00:50:36.614Z,41.50
2019-02-14T00:53:06.224Z,42.73
2019-02-14T00:55:35.688Z,47.48
2019-02-14T00:58:05.148Z,41.37
2019-02-14T01:00:34.828Z,42.70
2019-02-14T01:03:04.294Z,36.68
2019-02-14T01:05:33.991Z,41.13
2019-02-14T01:08:03.662Z,39.58
2019-02-14T01:10:33.071Z,44.45
2019-02-14T01:13:02.541Z,46.57
2019-02-14T01:15:32.902Z,37.05
2019-02-14T01:18:02.526Z,36.13
2019-02-14T01:20:32.020Z,39.03
2019-02-14T01:23:01.858Z,35.92
2019-02-14T01:25:31.353Z,44.08
2019-02-14T01:28:00.777Z,38.93
2019-02-14T01:30:30.515Z,42.53
2019-02-14T01:33:00.114Z,32.60
2019-02-14T01:35:29.603Z,40.10
2019-02-14T01:37:59.173Z,43.10
2019-02-14T01:40:28.569Z,37.48
2019-02-14T01:42:58.113Z,37.38
2019-02-14T01:45:27.907Z,36.85
2019-02-14T01:47:57.376Z,32.65
2019-02-14T01:50:26.799Z,35.97
2019-02-14T01:52:56.456Z,36.83
2019-02-14T01:55:25.970Z,35.43
2019-02-14T01:57:55.393Z,32.20
2019-02-14T02:00:25.362Z,37.17
2019-02-14T02:02:54.848Z,36.55
2019-02-14T02:05:24.499Z,34.45
2019-02-14T02:07:53.957Z,33.40
2019-02-14T02:10:23.603Z,36.68
2019-02-14T02:12:53.409Z,39.03
2019-02-14T02:15:22.881Z,35.73
2019-02-14T02:17:52.629Z,31.93
2019-02-14T02:20:22.091Z,33.08
2019-02-14T02:22:51.519Z,32.45
2019-02-14T02:25:21.438Z,29.92
2019-02-14T02:27:50.857Z,33.53
2019-02-14T02:30:20.324Z,31.35
2019-02-14T02:32:49.844Z,36.30
2019-02-14T02:35:19.324Z,34.23
2019-02-14T02:37:48.769Z,36.25
2019-02-14T02:40:18.520Z,34.92
2019-02-14T02:42:47.951Z,44.20
2019-02-14T02:45:17.361Z,37.98
2019-02-14T02:47:46.783Z,33.73
2019-02-14T02:50:16.385Z,38.63
2019-02-14T02:52:45.844Z,41.63
2019-02-14T02:55:15.380Z,37.63
2019-02-14T02:57:44.994Z,39.83
2019-02-14T03:00:16.399Z,33.13
2019-02-14T03:02:45.903Z,35.00
2019-02-14T03:05:15.700Z,34.75
2019-02-14T03:07:45.183Z,31.97
2019-02-14T03:10:14.698Z,33.88
2019-02-14T03:12:44.166Z,34.70
2019-02-14T03:15:14.012Z,32.97
2019-02-14T03:17:43.679Z,39.73
2019-02-14T03:20:13.217Z,36.17
2019-02-14T03:22:42.603Z,25.68
2019-02-14T03:25:14.656Z,34.08
2019-02-14T03:27:44.327Z,29.95
2019-02-14T03:30:14.592Z,34.05
2019-02-14T03:32:44.057Z,26.73
2019-02-14T03:35:13.609Z,33.35
2019-02-14T03:37:43.410Z,33.70
2019-02-14T03:40:12.947Z,35.98
2019-02-14T03:42:42.978Z,31.47
2019-02-14T03:45:15.015Z,29.27
2019-02-14T03:47:44.434Z,33.70
2019-02-14T03:50:14.465Z,31.37
2019-02-14T03:52:43.923Z,34.53
2019-02-14T03:55:13.775Z,29.55
2019-02-14T03:57:43.218Z,30.27
2019-02-14T04:00:14.598Z,34.23
2019-02-14T04:02:44.268Z,30.12
2019-02-14T04:05:13.836Z,32.15
2019-02-14T04:07:43.506Z,38.05
2019-02-14T04:10:13.273Z,30.20
2019-02-14T04:12:42.742Z,29.70
2019-02-14T04:15:13.737Z,33.95
2019-02-14T04:17:43.600Z,37.98
2019-02-14T04:20:13.060Z,39.05
2019-02-14T04:22:42.809Z,35.07
2019-02-14T04:25:12.993Z,40.88
2019-02-14T04:27:42.443Z,35.50
2019-02-14T04:30:12.437Z,32.78
2019-02-14T04:32:41.866Z,37.75
2019-02-14T04:35:11.842Z,36.77
2019-02-14T04:37:41.366Z,34.00
2019-02-14T04:40:12.508Z,38.28
2019-02-14T04:42:42.178Z,39.88
2019-02-14T04:45:11.717Z,33.83
2019-02-14T04:47:41.149Z,34.13
2019-02-14T04:50:10.646Z,41.55
2019-02-14T04:52:40.328Z,34.50
2019-02-14T04:55:09.996Z,41.95
2019-02-14T04:57:39.406Z,33.33
2019-02-14T05:00:10.139Z,28.15
2019-02-14T05:02:39.556Z,27.70
2019-02-14T05:05:09.489Z,34.55
2019-02-14T05:07:38.977Z,32.67
2019-02-14T05:10:08.993Z,33.20
2019-02-14T05:12:38.513Z,36.15
2019-02-14T05:15:08.585Z,31.00
2019-02-14T05:17:38.049Z,37.93
2019-02-14T05:20:08.659Z,32.05
2019-02-14T05:22:38.149Z,28.05
2019-02-14T05:25:08.121Z,31.23
2019-02-14T05:27:37.651Z,27.30
2019-02-14T05:30:09.279Z,32.98
2019-02-14T05:32:38.799Z,35.13
2019-02-14T05:35:08.877Z,30.82
2019-02-14T05:37:38.366Z,29.92
2019-02-14T05:40:08.752Z,31.57
2019-02-14T05:42:39.267Z,31.55
2019-02-14T05:45:09.729Z,28.95
2019-02-14T05:47:39.253Z,39.13
2019-02-14T05:50:09.542Z,35.30
2019-02-14T05:52:39.158Z,32.20
2019-02-14T05:55:10.271Z,29.48
2019-02-14T05:57:39.725Z,30.70
2019-02-14T06:00:11.499Z,27.30
2019-02-14T06:02:40.954Z,33.23
2019-02-14T06:05:10.448Z,35.67
2019-02-14T06:07:39.975Z,40.78
2019-02-14T06:10:09.702Z,33.40
2019-02-14T06:12:39.323Z,31.50
2019-02-14T06:15:09.447Z,31.60
2019-02-14T06:17:38.872Z,27.48
2019-02-14T06:20:08.903Z,29.32
2019-02-14T06:22:38.447Z,32.28
2019-02-14T06:25:08.093Z,34.03
2019-02-14T06:27:37.570Z,34.25
2019-02-14T06:30:08.729Z,32.20
2019-02-14T06:32:38.389Z,30.35
2019-02-14T06:35:08.861Z,32.53
2019-02-14T06:37:38.298Z,33.13
2019-02-14T06:40:09.092Z,33.25
2019-02-14T06:42:38.409Z,31.00
2019-02-14T06:45:09.856Z,35.28
2019-02-14T06:47:39.800Z,31.75
2019-02-14T06:50:10.332Z,34.13
2019-02-14T06:52:40.510Z,34.20
2019-02-14T06:55:10.406Z,29.40
2019-02-14T06:57:40.034Z,35.05
2019-02-14T07:00:11.534Z,29.40
2019-02-14T07:02:41.138Z,31.87
2019-02-14T07:05:11.518Z,27.85
2019-02-14T07:07:42.099Z,29.77
2019-02-14T07:10:11.596Z,30.00
2019-02-14T07:12:41.747Z,32.93
2019-02-14T07:15:11.769Z,32.33
2019-02-14T07:17:41.291Z,32.50
2019-02-14T07:20:12.472Z,28.23
2019-02-14T07:22:41.868Z,32.17
2019-02-14T07:25:11.728Z,34.33
2019-02-14T07:27:41.610Z,26.10
2019-02-14T07:30:14.042Z,37.67
2019-02-14T07:32:43.522Z,33.38
2019-02-14T07:35:13.368Z,33.63
2019-02-14T07:37:42.998Z,34.77
2019-02-14T07:40:13.298Z,32.63
2019-02-14T07:42:43.237Z,39.48
2019-02-14T07:45:14.484Z,30.90
2019-02-14T07:47:43.920Z,37.03
2019-02-14T07:50:13.092Z,33.00
2019-02-14T07:52:43.003Z,29.07
2019-02-14T07:55:12.461Z,33.40
2019-02-14T07:57:42.240Z,30.75
2019-02-14T08:00:13.450Z,34.27
2019-02-14T08:02:43.045Z,27.03
2019-02-14T08:05:12.775Z,28.87
2019-02-14T08:07:42.297Z,29.35
2019-02-14T08:10:13.131Z,34.78
2019-02-14T08:12:42.621Z,30.17
2019-02-14T08:15:13.272Z,33.20
2019-02-14T08:17:43.015Z,31.30
2019-02-14T08:20:13.617Z,30.02
2019-02-14T08:22:43.180Z,32.08
2019-02-14T08:25:12.961Z,27.13
2019-02-14T08:27:42.474Z,33.95
2019-02-14T08:30:13.779Z,34.40
2019-02-14T08:32:43.269Z,36.00
2019-02-14T08:35:13.038Z,27.93
2019-02-14T08:37:45.683Z,26.97
2019-02-14T08:40:16.683Z,29.55
2019-02-14T08:42:46.239Z,31.45
2019-02-14T08:45:16.352Z,28.90
2019-02-14T08:47:46.086Z,29.75
2019-02-14T08:50:15.551Z,32.90
2019-02-14T08:52:45.362Z,31.37
2019-02-14T08:55:14.961Z,27.32
2019-02-14T08:57:44.482Z,30.30
2019-02-14T09:00:14.203Z,25.45
2019-02-14T09:02:43.647Z,24.98
2019-02-14T09:05:13.234Z,27.35
2019-02-14T09:07:42.753Z,29.42
2019-02-14T09:10:13.285Z,26.30
2019-02-14T09:12:43.029Z,28.55
2019-02-14T09:15:12.863Z,27.03
2019-02-14T09:17:42.410Z,31.07
2019-02-14T09:20:13.021Z,32.13
2019-02-14T09:22:42.569Z,42.65
2019-02-14T09:25:12.563Z,26.00
2019-02-14T09:27:42.009Z,21.90
2019-02-14T09:30:11.533Z,24.25
2019-02-14T09:32:40.969Z,25.50
2019-02-14T09:35:10.647Z,28.75
2019-02-14T09:37:40.250Z,30.72
2019-02-14T09:40:11.053Z,28.40
2019-02-14T09:42:40.845Z,26.68
2019-02-14T09:45:11.275Z,27.10
2019-02-14T09:47:40.773Z,24.72
2019-02-14T09:50:11.271Z,28.55
2019-02-14T09:52:41.050Z,28.42
2019-02-14T09:55:11.288Z,23.18
2019-02-14T09:57:40.856Z,25.48
2019-02-14T10:00:13.139Z,23.50
2019-02-14T10:02:42.627Z,24.67
2019-02-14T10:05:12.502Z,21.93
2019-02-14T10:07:41.990Z,22.73
2019-02-14T10:10:14.113Z,28.02
2019-02-14T10:12:43.814Z,27.58
2019-02-14T10:15:13.760Z,23.10
2019-02-14T10:17:43.216Z,25.75
2019-02-14T10:20:14.623Z,24.67
2019-02-14T10:22:44.202Z,23.75
2019-02-14T10:25:13.709Z,17.27
2019-02-14T10:27:43.374Z,22.35
2019-02-14T10:30:15.476Z,21.30
2019-02-14T10:32:44.967Z,23.65
2019-02-14T10:35:14.787Z,25.75
2019-02-14T10:37:44.360Z,18.20
2019-02-14T10:40:14.572Z,23.77
2019-02-14T10:42:44.068Z,23.95
2019-02-14T10:45:15.638Z,28.90
2019-02-14T10:47:47.776Z,23.63
2019-02-14T10:50:17.298Z,18.00
2019-02-14T10:52:46.870Z,24.35
2019-02-14T10:55:17.152Z,24.05
2019-02-14T10:57:46.602Z,21.85
2019-02-14T11:00:19.408Z,22.50
2019-02-14T11:02:49.998Z,24.82
2019-02-14T11:05:20.221Z,23.80
2019-02-14T11:07:49.850Z,23.25
2019-02-14T11:10:19.536Z,24.00
2019-02-14T11:12:49.022Z,22.17
2019-02-14T11:15:20.935Z,19.50
2019-02-14T11:17:50.487Z,23.87
2019-02-14T11:20:19.921Z,22.50
2019-02-14T11:22:49.685Z,23.80
2019-02-14T11:25:25.198Z,22.63
2019-02-14T11:27:55.030Z,25.10
2019-02-14T11:30:24.432Z,23.80
2019-02-14T11:32:54.254Z,24.07
2019-02-14T11:35:23.752Z,20.20
2019-02-14T11:37:53.177Z,24.43
2019-02-14T11:40:22.839Z,20.70
2019-02-14T11:42:52.353Z,21.52
2019-02-14T11:45:21.979Z,18.17
2019-02-14T11:47:51.694Z,21.00
2019-02-14T11:50:21.119Z,21.23
2019-02-14T11:52:50.744Z,18.00
2019-02-14T11:55:20.252Z,20.07
2019-02-14T11:57:49.852Z,18.95
2019-02-14T12:00:23.478Z,20.90
2019-02-14T12:02:56.117Z,22.37
2019-02-14T12:05:24.298Z,21.70
2019-02-14T12:07:53.830Z,21.42
2019-02-14T12:10:23.298Z,24.65
2019-02-14T12:12:52.803Z,21.35
2019-02-14T12:15:23.368Z,21.52
2019-02-14T12:17:52.983Z,16.87
2019-02-14T12:20:22.445Z,17.75
2019-02-14T12:22:52.208Z,16.20
2019-02-14T12:25:21.821Z,21.42
2019-02-14T12:27:51.411Z,19.62
2019-02-14T12:30:20.924Z,20.37
2019-02-14T12:32:50.411Z,19.70
2019-02-14T12:35:19.899Z,21.75
2019-02-14T12:37:49.606Z,17.77
2019-02-14T12:40:19.090Z,17.73
2019-02-14T12:42:48.626Z,16.70
2019-02-14T12:45:21.707Z,20.02
2019-02-14T12:47:50.430Z,13.45
2019-02-14T12:50:19.983Z,17.27
2019-02-14T12:52:49.683Z,16.25
2019-02-14T12:55:19.158Z,16.93
2019-02-14T12:57:48.689Z,15.80
2019-02-14T13:00:19.629Z,21.75
2019-02-14T13:02:49.076Z,17.98
2019-02-14T13:05:18.899Z,17.55
2019-02-14T13:07:48.463Z,17.95
2019-02-14T13:10:19.080Z,18.60
2019-02-14T13:12:48.634Z,24.72
2019-02-14T13:15:19.733Z,22.93
2019-02-14T13:17:49.208Z,18.48
2019-02-14T13:20:18.916Z,20.52
2019-02-14T13:22:48.449Z,18.12
2019-02-14T13:25:18.032Z,19.32
2019-02-14T13:27:47.764Z,21.15
2019-02-14T13:30:21.271Z,16.37
2019-02-14T13:32:51.294Z,21.97
2019-02-14T13:35:21.283Z,17.12
2019-02-14T13:37:50.744Z,15.95
2019-02-14T13:40:20.326Z,13.75
2019-02-14T13:42:49.762Z,16.83
2019-02-14T13:45:21.542Z,15.80
2019-02-14T13:47:51.379Z,14.03
2019-02-14T13:50:20.949Z,17.10
2019-02-14T13:52:50.468Z,13.72
2019-02-14T13:55:19.991Z,15.68
2019-02-14T13:57:49.450Z,14.25
2019-02-14T14:00:22.194Z,12.37
2019-02-14T14:02:51.676Z,14.25
2019-02-14T14:05:21.112Z,13.93
2019-02-14T14:07:50.706Z,16.12
2019-02-14T14:10:20.233Z,13.95
2019-02-14T14:12:49.715Z,17.82
2019-02-14T14:15:19.662Z,14.33
2019-02-14T14:17:49.179Z,14.65
2019-02-14T14:20:18.789Z,14.78
2019-02-14T14:22:48.281Z,17.80
2019-02-14T14:25:17.771Z,15.13
2019-02-14T14:27:47.344Z,14.58
2019-02-14T14:30:16.841Z,13.40
2019-02-14T14:32:46.259Z,13.48
2019-02-14T14:35:15.917Z,14.87
2019-02-14T14:37:45.436Z,18.52
2019-02-14T14:40:15.370Z,13.98
2019-02-14T14:43:03.752Z,16.95
2019-02-14T14:45:46.247Z,19.47
2019-02-14T14:48:19.552Z,18.62
2019-02-14T14:50:46.885Z,15.90
2019-02-14T14:53:16.455Z,19.50
2019-02-14T14:55:45.909Z,20.70
2019-02-14T14:58:15.383Z,27.73
2019-02-14T15:00:44.903Z,19.15
2019-02-14T15:03:14.345Z,33.95
2019-02-14T15:05:43.847Z,21.12
2019-02-14T15:08:13.310Z,17.45
2019-02-14T15:10:42.756Z,19.77
2019-02-14T15:13:12.613Z,25.05
2019-02-14T15:15:42.145Z,22.52
2019-02-14T15:18:12.055Z,30.05
2019-02-14T15:20:41.538Z,27.22
2019-02-14T15:23:11.128Z,25.37
2019-02-14T15:25:40.646Z,38.75
2019-02-14T15:28:10.167Z,21.85
2019-02-14T15:30:39.796Z,22.47
2019-02-14T15:33:09.366Z,21.57
2019-02-14T15:35:38.815Z,23.57
2019-02-14T15:38:09.765Z,21.70
2019-02-14T15:40:39.339Z,22.10
2019-02-14T15:43:08.864Z,24.57
2019-02-14T15:45:38.444Z,21.27
2019-02-14T15:48:07.954Z,20.95
2019-02-14T15:50:37.729Z,19.62
2019-02-14T15:53:07.647Z,21.90
2019-02-14T15:55:39.077Z,24.43
2019-02-14T15:58:09.296Z,30.35
2019-02-14T16:00:38.816Z,24.32
2019-02-14T16:03:08.283Z,28.12
2019-02-14T16:05:38.488Z,25.15
2019-02-14T16:08:08.996Z,23.20
2019-02-14T16:10:38.448Z,23.97
2019-02-14T16:13:09.781Z,23.32
2019-02-14T16:15:39.036Z,27.35
2019-02-14T16:18:08.932Z,36.40
2019-02-14T16:20:40.389Z,26.57
2019-02-14T16:23:09.512Z,22.42
2019-02-14T16:25:39.292Z,22.73
2019-02-14T16:28:11.019Z,24.90
2019-02-14T16:30:39.942Z,27.22
2019-02-14T16:33:09.466Z,25.60
2019-02-14T16:35:39.063Z,27.42
2019-02-14T16:38:10.131Z,28.17
2019-02-14T16:40:39.733Z,31.55
2019-02-14T16:43:09.146Z,26.17
2019-02-14T16:45:38.863Z,26.90
2019-02-14T16:48:08.421Z,31.70
2019-02-14T16:50:37.972Z,36.23
2019-02-14T16:53:07.600Z,223.25
2019-02-14T16:55:37.135Z,30.05
2019-02-14T16:58:06.603Z,32.40
2019-02-14T17:00:36.362Z,29.98
2019-02-14T17:03:05.865Z,29.52
2019-02-14T17:05:35.570Z,28.00
2019-02-14T17:08:05.304Z,29.67
2019-02-14T17:10:36.989Z,30.70
2019-02-14T17:13:05.806Z,29.57
2019-02-14T17:15:35.240Z,28.40
2019-02-14T17:18:04.821Z,33.65
2019-02-14T17:20:34.341Z,31.00
2019-02-14T17:23:03.832Z,30.50
2019-02-14T17:25:33.431Z,32.63
2019-02-14T17:28:03.815Z,34.37
2019-02-14T17:30:33.366Z,30.48
2019-02-14T17:33:03.044Z,29.37
2019-02-14T17:35:32.609Z,34.83
2019-02-14T17:38:02.063Z,37.67
2019-02-14T17:40:31.506Z,38.88
2019-02-14T17:43:01.007Z,34.30
2019-02-14T17:45:30.451Z,45.60
2019-02-14T17:47:59.925Z,55.30
2019-02-14T17:50:29.417Z,62.60
2019-02-14T17:52:58.910Z,58.23
2019-02-14T17:55:28.333Z,77.70
2019-02-14T17:57:57.898Z,59.90
2019-02-14T18:00:28.240Z,65.75
2019-02-14T18:02:57.729Z,95.75
2019-02-14T18:05:27.950Z,66.90
2019-02-14T18:07:58.293Z,64.42
2019-02-14T18:10:27.868Z,76.30
2019-02-14T18:12:57.577Z,66.85
2019-02-14T18:15:27.120Z,63.13
2019-02-14T18:17:56.849Z,78.03
2019-02-14T18:20:26.398Z,55.73
2019-02-14T18:22:55.901Z,72.55
2019-02-14T18:25:25.677Z,74.35
2019-02-14T18:27:55.169Z,66.87
2019-02-14T18:30:24.764Z,68.02
2019-02-14T18:32:54.222Z,56.18
2019-02-14T18:35:23.676Z,71.53
2019-02-14T18:37:53.344Z,63.85
2019-02-14T18:40:22.892Z,82.53
2019-02-14T18:42:52.454Z,88.47
2019-02-14T18:45:22.157Z,65.90
2019-02-14T18:47:51.719Z,82.40
2019-02-14T18:50:21.273Z,73.03
2019-02-14T18:52:50.805Z,72.92
2019-02-14T18:55:20.479Z,110.50
2019-02-14T18:57:49.988Z,84.50
2019-02-14T19:00:19.488Z,79.12
2019-02-14T19:02:48.999Z,79.75
2019-02-14T19:05:18.435Z,78.43
2019-02-14T19:07:47.915Z,61.98
2019-02-14T19:10:17.399Z,63.45
2019-02-14T19:12:46.851Z,58.63
2019-02-14T19:15:16.311Z,55.17
2019-02-14T19:17:45.751Z,42.65
2019-02-14T19:20:15.489Z,34.45
2019-02-14T19:22:44.933Z,42.98
2019-02-14T19:25:14.434Z,46.08
2019-02-14T19:27:43.947Z,44.88
2019-02-14T19:30:13.962Z,49.48
2019-02-14T19:32:43.518Z,113.13
2019-02-14T19:35:22.317Z,42.43
2019-02-14T19:37:44.545Z,37.85
2019-02-14T19:40:14.009Z,50.63
2019-02-14T19:42:43.488Z,51.33
2019-02-14T19:45:13.021Z,50.17
2019-02-14T19:47:42.625Z,60.38
2019-02-14T19:50:12.189Z,63.13
2019-02-14T19:52:41.733Z,66.70
2019-02-14T19:55:11.288Z,77.65
2019-02-14T19:57:40.818Z,60.48
2019-02-14T20:00:11.522Z,68.83
2019-02-14T20:02:41.043Z,103.35
2019-02-14T20:05:11.222Z,66.47
2019-02-14T20:07:40.787Z,78.30
2019-02-14T20:10:11.103Z,79.27
2019-02-14T20:12:40.665Z,138.18
2019-02-14T20:15:12.490Z,87.72
2019-02-14T20:17:41.931Z,131.95
2019-02-14T20:20:11.652Z,68.30
2019-02-14T20:22:41.232Z,67.35
2019-02-14T20:25:12.241Z,92.08
2019-02-14T20:27:41.719Z,104.78
2019-02-14T20:30:11.347Z,135.15
2019-02-14T20:32:41.016Z,110.28
2019-02-14T20:35:10.511Z,93.40
2019-02-14T20:37:40.120Z,87.57
2019-02-14T20:40:09.793Z,91.60
2019-02-14T20:42:39.289Z,91.82
2019-02-14T20:45:09.996Z,90.32
2019-02-14T20:47:39.548Z,97.22
2019-02-14T20:50:10.856Z,99.05
2019-02-14T20:52:40.546Z,102.82
2019-02-14T20:55:11.952Z,87.45
2019-02-14T20:57:41.272Z,92.75
2019-02-14T21:00:20.231Z,85.92
2019-02-14T21:02:49.779Z,79.30
2019-02-14T21:05:19.608Z,92.17
2019-02-14T21:07:49.068Z,105.03
2019-02-14T21:10:18.534Z,106.90
2019-02-14T21:12:48.005Z,106.87
2019-02-14T21:15:17.503Z,112.17
2019-02-14T21:17:46.948Z,113.90
2019-02-14T21:20:16.585Z,112.72
2019-02-14T21:22:45.983Z,114.08
2019-02-14T21:25:16.255Z,113.60
2019-02-14T21:27:45.835Z,111.32
2019-02-14T21:30:16.021Z,109.40
2019-02-14T21:32:45.585Z,108.17
2019-02-14T21:35:15.081Z,110.68
2019-02-14T21:37:44.533Z,103.12
2019-02-14T21:40:14.245Z,100.30
2019-02-14T21:42:43.774Z,106.83
2019-02-14T21:45:13.704Z,104.38
2019-02-14T21:47:43.151Z,108.85
2019-02-14T21:50:12.769Z,104.53
2019-02-14T21:52:42.406Z,112.65
2019-02-14T21:55:11.934Z,109.60
2019-02-14T21:57:41.423Z,109.20
2019-02-14T22:00:14.457Z,110.90
2019-02-14T22:02:44.617Z,101.70
2019-02-14T22:05:14.086Z,99.10
2019-02-14T22:07:43.602Z,105.22
2019-02-14T22:10:13.150Z,92.17
2019-02-14T22:12:43.741Z,100.50
2019-02-14T22:15:15.355Z,93.05
2019-02-14T22:17:44.797Z,96.40
2019-02-14T22:20:14.520Z,89.03
2019-02-14T22:22:43.995Z,85.53
2019-02-14T22:25:13.562Z,88.00
2019-02-14T22:27:43.045Z,78.45
2019-02-14T22:30:15.016Z,81.07
2019-02-14T22:32:44.614Z,77.78
2019-02-14T22:35:14.090Z,74.35
2019-02-14T22:37:43.523Z,76.22
2019-02-14T22:40:13.313Z,74.07
2019-02-14T22:42:47.370Z,74.70
2019-02-14T22:45:14.026Z,66.57
2019-02-14T22:47:44.422Z,67.08
2019-02-14T22:50:14.000Z,71.03
2019-02-14T22:52:43.463Z,65.00
2019-02-14T22:55:12.917Z,60.83
2019-02-14T22:57:42.382Z,69.12
2019-02-14T23:00:30.020Z,70.25
2019-02-14T23:02:59.763Z,67.70
2019-02-14T23:05:29.229Z,65.45
2019-02-14T23:07:58.740Z,65.05
2019-02-14T23:10:28.216Z,66.95
2019-02-14T23:12:57.623Z,72.20
2019-02-14T23:15:27.109Z,74.37
2019-02-14T23:17:56.562Z,68.72
2019-02-14T23:20:26.024Z,71.97
2019-02-14T23:22:55.495Z,66.02
2019-02-14T23:25:24.968Z,68.92
2019-02-14T23:27:54.383Z,69.22
2019-02-14T23:30:23.815Z,68.67
2019-02-14T23:32:53.282Z,67.08
2019-02-14T23:35:22.750Z,71.95
2019-02-14T23:37:52.199Z,61.30
2019-02-14T23:40:22.148Z,64.27
2019-02-14T23:42:51.588Z,65.52
2019-02-14T23:45:21.060Z,67.72
2019-02-14T23:47:50.476Z,68.75
2019-02-14T23:50:19.913Z,71.55
2019-02-14T23:52:49.344Z,66.50
2019-02-14T23:55:18.812Z,62.43
2019-02-14T23:57:48.236Z,64.85
